Time;durP1;ratioP1;P1;durP2;ratioP2;P2;SDS_P1;SDS_P2;PMS_P1;PMS_P2;Temp;Humidity;BMP_temperature;BMP_pressure;BME280_temperature;BME280_humidity;BME280_pressure;Samples;Min_cycle;Max_cycle;Signal;HPM_P1;HPM_P2
2022/01/01 00:01:43;;;;;;;;;;;13.80;99.90;;;;;;4994612;28;19916;-78
2022/01/01 00:04:08;;;;;;;;;;;13.80;99.90;;;;;;4977541;28;19917;-77
2022/01/01 00:06:34;;;;;;;;;;;13.80;99.90;;;;;;4995128;28;19933;-78
2022/01/01 00:08:59;;;;;;;;;;;13.80;99.90;;;;;;4994657;28;20434;-77
2022/01/01 00:11:25;;;;;;;;;;;13.80;99.90;;;;;;4978939;28;19957;-81
2022/01/01 00:13:51;;;;;;;;;;;13.80;99.90;;;;;;4994827;28;20366;-77
2022/01/01 00:16:16;;;;;;;;;;;13.80;99.90;;;;;;4979121;28;19910;-77
2022/01/01 00:18:42;;;;;;;;;;;13.80;99.90;;;;;;4979243;28;19917;-78
2022/01/01 00:21:07;;;;;;;;;;;13.70;99.90;;;;;;4994324;28;19960;-78
2022/01/01 00:23:33;;;;;;;;;;;13.70;99.90;;;;;;4977631;28;19913;-77
2022/01/01 00:25:58;;;;;;;;;;;13.80;99.90;;;;;;4994258;28;19921;-77
2022/01/01 00:28:24;;;;;;;;;;;13.70;99.90;;;;;;4978142;28;19910;-77
2022/01/01 00:30:50;;;;;;;;;;;13.70;99.90;;;;;;4994992;28;19941;-77
2022/01/01 00:33:15;;;;;;;;;;;13.70;99.90;;;;;;4997364;28;19925;-82
2022/01/01 00:35:41;;;;;;;;;;;13.70;99.90;;;;;;4999589;28;20008;-77
2022/01/01 00:38:07;;;;;;;;;;;13.70;99.90;;;;;;4982790;28;19957;-78
2022/01/01 00:40:33;;;;;;;;;;;13.70;99.90;;;;;;4998987;28;19948;-77
2022/01/01 00:43:00;;;;;;;;;;;13.70;99.90;;;;;;4998345;28;20270;-78
2022/01/01 00:45:26;;;;;;;;;;;13.70;99.90;;;;;;5001174;28;19913;-76
2022/01/01 00:47:51;;;;;;;;;;;13.70;99.90;;;;;;5003148;28;19933;-78
2022/01/01 00:50:17;;;;;;;;;;;13.70;99.90;;;;;;5004503;28;19909;-81
2022/01/01 00:52:44;;;;;;;;;;;13.80;99.90;;;;;;5006136;28;19933;-78
2022/01/01 00:55:10;;;;;;;;;;;13.70;99.90;;;;;;5003581;28;19905;-78
2022/01/01 00:57:35;;;;;;;;;;;13.70;99.90;;;;;;5004924;28;19949;-79
2022/01/01 01:00:02;;;;;;;;;;;13.80;99.90;;;;;;5005304;28;20409;-78
2022/01/01 01:02:27;;;;;;;;;;;13.70;99.90;;;;;;4988424;28;19914;-78
2022/01/01 01:04:53;;;;;;;;;;;13.70;99.90;;;;;;5006795;28;19945;-78
2022/01/01 01:07:18;;;;;;;;;;;13.70;99.90;;;;;;4989922;28;19913;-78
2022/01/01 01:09:44;;;;;;;;;;;13.80;99.90;;;;;;5006294;28;19933;-79
2022/01/01 01:12:09;;;;;;;;;;;13.80;99.90;;;;;;5003182;28;19972;-77
2022/01/01 01:14:40;;;;;;;;;;;13.70;99.90;;;;;;4981559;28;19909;-78
2022/01/01 01:17:07;;;;;;;;;;;13.80;99.90;;;;;;4981602;28;19915;-78
2022/01/01 01:19:32;;;;;;;;;;;13.80;99.90;;;;;;4996982;28;19914;-82
2022/01/01 01:21:58;;;;;;;;;;;13.70;99.90;;;;;;4997309;28;19964;-78
2022/01/01 01:24:25;;;;;;;;;;;13.80;99.90;;;;;;4980906;28;20530;-78
2022/01/01 01:26:51;;;;;;;;;;;13.70;99.90;;;;;;4997146;28;19910;-79
2022/01/01 01:29:18;;;;;;;;;;;13.80;99.90;;;;;;4996958;28;19952;-78
2022/01/01 01:31:43;;;;;;;;;;;13.80;99.90;;;;;;4980797;28;20347;-79
2022/01/01 01:34:09;;;;;;;;;;;13.80;99.90;;;;;;4997725;28;19906;-78
2022/01/01 01:36:34;;;;;;;;;;;13.80;99.90;;;;;;4980312;28;19909;-81
2022/01/01 01:39:00;;;;;;;;;;;13.80;99.90;;;;;;4980672;28;20333;-78
2022/01/01 01:41:30;;;;;;;;;;;13.80;99.90;;;;;;4996692;28;20339;-78
2022/01/01 01:43:57;;;;;;;;;;;13.80;99.90;;;;;;4981460;28;19956;-78
2022/01/01 01:46:23;;;;;;;;;;;13.80;99.90;;;;;;4995991;28;20012;-76
2022/01/01 01:48:48;;;;;;;;;;;13.80;99.90;;;;;;4997146;28;19914;-76
2022/01/01 01:51:14;;;;;;;;;;;13.80;99.90;;;;;;4980681;28;19910;-79
2022/01/01 01:53:39;;;;;;;;;;;13.80;99.90;;;;;;4980999;28;19972;-78
2022/01/01 01:56:05;;;;;;;;;;;13.80;99.90;;;;;;4980482;28;19910;-78
2022/01/01 01:58:30;;;;;;;;;;;13.80;99.90;;;;;;4997846;28;19909;-77
2022/01/01 02:03:23;;;;;;;;;;;13.80;99.90;;;;;;5000109;28;19913;-78
2022/01/01 02:05:48;;;;;;;;;;;13.80;99.90;;;;;;4986484;28;19956;-78
2022/01/01 02:08:16;;;;;;;;;;;13.80;99.90;;;;;;5001341;28;19906;-78
2022/01/01 02:10:42;;;;;;;;;;;13.80;99.90;;;;;;5001606;28;20355;-77
2022/01/01 02:13:16;;;;;;;;;;;13.80;99.90;;;;;;5002153;28;19952;-77
2022/01/01 02:18:10;;;;;;;;;;;13.80;99.90;;;;;;4997560;28;19933;-77
2022/01/01 02:20:36;;;;;;;;;;;13.80;99.90;;;;;;4980022;28;19909;-77
2022/01/01 02:23:02;;;;;;;;;;;13.80;99.90;;;;;;4995018;28;19963;-78
2022/01/01 02:25:28;;;;;;;;;;;13.80;99.90;;;;;;4979827;28;19920;-78
2022/01/01 02:27:54;;;;;;;;;;;13.80;99.90;;;;;;4996017;28;19902;-79
2022/01/01 02:30:20;;;;;;;;;;;13.80;99.90;;;;;;4995963;28;19955;-75
2022/01/01 02:32:45;;;;;;;;;;;13.80;99.90;;;;;;4980364;28;19909;-80
2022/01/01 02:35:12;;;;;;;;;;;13.70;99.90;;;;;;4995726;28;20359;-78
2022/01/01 02:37:38;;;;;;;;;;;13.80;99.90;;;;;;4995824;28;19906;-82
2022/01/01 02:40:05;;;;;;;;;;;13.80;99.90;;;;;;4979112;28;19910;-78
2022/01/01 02:42:31;;;;;;;;;;;13.70;99.90;;;;;;4996290;28;20266;-77
2022/01/01 02:44:58;;;;;;;;;;;13.70;99.90;;;;;;4995666;28;19909;-78
2022/01/01 02:47:27;;;;;;;;;;;13.80;99.90;;;;;;4995441;28;19905;-79
2022/01/01 02:49:53;;;;;;;;;;;13.80;99.90;;;;;;4995592;28;19906;-77
2022/01/01 02:52:19;;;;;;;;;;;13.70;99.90;;;;;;4995493;28;19921;-78
2022/01/01 02:54:44;;;;;;;;;;;13.80;99.90;;;;;;4995370;28;19916;-79
2022/01/01 02:57:10;;;;;;;;;;;13.80;99.90;;;;;;4995815;28;19956;-77
2022/01/01 02:59:35;;;;;;;;;;;13.80;99.90;;;;;;4994182;28;19951;-80
2022/01/01 03:02:01;;;;;;;;;;;13.80;99.90;;;;;;4995116;28;19906;-77
2022/01/01 03:04:26;;;;;;;;;;;13.80;99.90;;;;;;4979300;28;19937;-79
2022/01/01 03:06:53;;;;;;;;;;;13.80;99.90;;;;;;4979008;28;20012;-79
2022/01/01 03:09:19;;;;;;;;;;;13.80;99.90;;;;;;4978900;28;19914;-78
2022/01/01 03:11:45;;;;;;;;;;;13.80;99.90;;;;;;4996736;28;19913;-81
2022/01/01 03:14:17;;;;;;;;;;;13.80;99.90;;;;;;4979309;28;19910;-78
2022/01/01 03:16:43;;;;;;;;;;;13.80;99.90;;;;;;4979413;28;19910;-78
2022/01/01 03:19:16;;;;;;;;;;;13.80;99.90;;;;;;5163465;27;20006;-79
2022/01/01 03:21:42;;;;;;;;;;;13.80;99.90;;;;;;5133679;27;19961;-78
2022/01/01 03:24:07;;;;;;;;;;;13.80;99.90;;;;;;5131169;27;19918;-78
2022/01/01 03:26:33;;;;;;;;;;;13.80;99.90;;;;;;5115933;27;19911;-79
2022/01/01 03:28:58;;;;;;;;;;;13.80;99.90;;;;;;5146019;27;20325;-78
2022/01/01 03:31:25;;;;;;;;;;;13.80;99.90;;;;;;5134301;27;19919;-78
2022/01/01 03:33:51;;;;;;;;;;;13.80;99.90;;;;;;5114080;28;19911;-79
2022/01/01 03:36:17;;;;;;;;;;;13.80;99.90;;;;;;5111415;27;19912;-77
2022/01/01 03:38:42;;;;;;;;;;;13.90;99.90;;;;;;5130489;27;19915;-78
2022/01/01 03:41:08;;;;;;;;;;;13.90;99.90;;;;;;5133901;27;19990;-78
2022/01/01 03:43:34;;;;;;;;;;;13.90;99.90;;;;;;5132872;27;20381;-78
2022/01/01 03:45:59;;;;;;;;;;;13.90;99.90;;;;;;5131700;27;19911;-78
2022/01/01 03:48:25;;;;;;;;;;;13.90;99.90;;;;;;5133230;27;19919;-81
2022/01/01 03:50:52;;;;;;;;;;;13.90;99.90;;;;;;5149388;27;19915;-78
2022/01/01 03:53:18;;;;;;;;;;;13.90;99.90;;;;;;5113171;27;19926;-78
2022/01/01 03:55:43;;;;;;;;;;;13.80;99.90;;;;;;5113017;28;20301;-78
2022/01/01 03:58:09;;;;;;;;;;;13.90;99.90;;;;;;5131980;27;20609;-77
2022/01/01 04:00:36;;;;;;;;;;;13.90;99.90;;;;;;5115034;27;19954;-78
2022/01/01 04:03:09;;;;;;;;;;;13.90;99.90;;;;;;5132093;27;19951;-78
2022/01/01 04:05:35;;;;;;;;;;;13.90;99.90;;;;;;5132855;27;19907;-77
2022/01/01 04:08:03;;;;;;;;;;;13.90;99.90;;;;;;5115916;27;20367;-78
2022/01/01 04:10:31;;;;;;;;;;;13.90;99.90;;;;;;5124291;28;19922;-78
2022/01/01 04:12:57;;;;;;;;;;;13.80;99.90;;;;;;5103071;27;20076;-78
2022/01/01 04:15:23;;;;;;;;;;;13.90;99.90;;;;;;5115589;27;19915;-77
2022/01/01 04:17:48;;;;;;;;;;;13.90;99.90;;;;;;5111993;28;19934;-78
2022/01/01 04:20:14;;;;;;;;;;;13.90;99.90;;;;;;5122061;28;19961;-78
2022/01/01 04:22:39;;;;;;;;;;;13.80;99.90;;;;;;5127752;28;19969;-78
2022/01/01 04:25:05;;;;;;;;;;;13.90;99.90;;;;;;5129337;28;19912;-78
2022/01/01 04:27:31;;;;;;;;;;;13.80;99.90;;;;;;5128532;28;20271;-79
2022/01/01 04:29:56;;;;;;;;;;;13.90;99.90;;;;;;5116871;28;20256;-81
2022/01/01 04:32:22;;;;;;;;;;;13.90;99.90;;;;;;5109590;28;19951;-78
2022/01/01 04:34:47;;;;;;;;;;;13.80;99.90;;;;;;5095523;28;19920;-78
2022/01/01 04:37:15;;;;;;;;;;;13.80;99.90;;;;;;5093096;28;19926;-78
2022/01/01 04:39:40;;;;;;;;;;;13.80;99.90;;;;;;5111411;28;19923;-78
2022/01/01 04:42:06;;;;;;;;;;;13.80;99.90;;;;;;5107596;28;19912;-79
2022/01/01 04:44:32;;;;;;;;;;;13.80;99.90;;;;;;5101273;28;19909;-78
2022/01/01 04:46:57;;;;;;;;;;;13.80;99.90;;;;;;5079568;28;19922;-78
2022/01/01 04:49:23;;;;;;;;;;;13.80;99.90;;;;;;5113245;28;19911;-77
2022/01/01 04:51:49;;;;;;;;;;;13.80;99.90;;;;;;5107800;28;19920;-78
2022/01/01 04:54:15;;;;;;;;;;;13.80;99.90;;;;;;5114388;28;20085;-78
2022/01/01 04:56:45;;;;;;;;;;;13.70;99.90;;;;;;5116687;28;19912;-78
2022/01/01 04:59:11;;;;;;;;;;;13.70;99.90;;;;;;5113096;28;20321;-78
2022/01/01 05:01:37;;;;;;;;;;;13.70;99.90;;;;;;5112739;28;19923;-78
2022/01/01 05:04:03;;;;;;;;;;;13.70;99.90;;;;;;5093269;28;19917;-77
2022/01/01 05:06:28;;;;;;;;;;;13.80;99.90;;;;;;5094806;28;19926;-79
2022/01/01 05:08:54;;;;;;;;;;;13.80;99.90;;;;;;5109522;28;19968;-76
2022/01/01 05:11:19;;;;;;;;;;;13.80;99.90;;;;;;5096024;28;20320;-77
2022/01/01 05:13:45;;;;;;;;;;;13.70;99.90;;;;;;5109431;28;19923;-78
2022/01/01 05:16:15;;;;;;;;;;;13.70;99.90;;;;;;5115065;28;19918;-78
2022/01/01 05:18:41;;;;;;;;;;;13.80;99.90;;;;;;5126107;27;20351;-79
2022/01/01 05:21:06;;;;;;;;;;;13.70;99.90;;;;;;5111215;28;20026;-78
2022/01/01 05:23:32;;;;;;;;;;;13.80;99.90;;;;;;5082977;27;19955;-78
2022/01/01 05:25:58;;;;;;;;;;;13.80;99.90;;;;;;5089731;28;19916;-81
2022/01/01 05:28:24;;;;;;;;;;;13.70;99.90;;;;;;5097995;28;19930;-78
2022/01/01 05:30:49;;;;;;;;;;;13.80;99.90;;;;;;5108437;27;19911;-78
2022/01/01 05:33:16;;;;;;;;;;;13.80;99.90;;;;;;5118582;27;19939;-78
2022/01/01 05:35:42;;;;;;;;;;;13.80;99.90;;;;;;5116517;27;19922;-78
2022/01/01 05:38:07;;;;;;;;;;;13.80;99.90;;;;;;5118035;27;19915;-78
2022/01/01 05:40:33;;;;;;;;;;;13.80;99.90;;;;;;5116953;28;19919;-78
2022/01/01 05:42:58;;;;;;;;;;;13.80;99.90;;;;;;5103823;28;19968;-78
2022/01/01 05:45:24;;;;;;;;;;;13.70;99.90;;;;;;5084994;27;19968;-77
2022/01/01 05:47:49;;;;;;;;;;;13.70;99.90;;;;;;5100678;27;20056;-78
2022/01/01 05:50:17;;;;;;;;;;;13.70;99.90;;;;;;5094715;27;19916;-77
2022/01/01 05:52:43;;;;;;;;;;;13.70;99.90;;;;;;5117009;27;20391;-76
2022/01/01 05:55:08;;;;;;;;;;;13.70;99.90;;;;;;5094720;27;20016;-80
2022/01/01 05:57:34;;;;;;;;;;;13.70;99.90;;;;;;5134779;27;20018;-78
2022/01/01 06:00:00;;;;;;;;;;;13.70;99.90;;;;;;5115763;27;20020;-77
2022/01/01 06:02:25;;;;;;;;;;;13.70;99.90;;;;;;5099543;27;20015;-78
2022/01/01 06:04:52;;;;;;;;;;;13.70;99.90;;;;;;5115862;27;19916;-78
2022/01/01 06:07:17;;;;;;;;;;;13.70;99.90;;;;;;5100633;27;19964;-78
2022/01/01 06:09:45;;;;;;;;;;;13.70;99.90;;;;;;5098875;28;19919;-79
2022/01/01 06:12:11;;;;;;;;;;;13.70;99.90;;;;;;5107043;27;19916;-78
2022/01/01 06:14:36;;;;;;;;;;;13.70;99.90;;;;;;5135995;27;19995;-77
2022/01/01 06:17:02;;;;;;;;;;;13.70;99.90;;;;;;5117485;27;19923;-79
2022/01/01 06:19:28;;;;;;;;;;;13.70;99.90;;;;;;5133300;27;19938;-77
2022/01/01 06:21:53;;;;;;;;;;;13.70;99.90;;;;;;5116637;27;19915;-77
2022/01/01 06:24:19;;;;;;;;;;;13.70;99.90;;;;;;5116484;27;19912;-77
2022/01/01 06:26:44;;;;;;;;;;;13.70;99.90;;;;;;5116103;27;19915;-77
2022/01/01 06:29:10;;;;;;;;;;;13.70;99.90;;;;;;5113569;27;19915;-78
2022/01/01 06:31:35;;;;;;;;;;;13.70;99.90;;;;;;5114706;27;19957;-78
2022/01/01 06:34:02;;;;;;;;;;;13.70;99.90;;;;;;5116760;27;19954;-78
2022/01/01 06:36:28;;;;;;;;;;;13.70;99.90;;;;;;5131722;27;19947;-79
2022/01/01 06:38:53;;;;;;;;;;;13.60;99.90;;;;;;5105834;28;20032;-78
2022/01/01 06:41:19;;;;;;;;;;;13.60;99.90;;;;;;5093024;27;19923;-77
2022/01/01 06:43:45;;;;;;;;;;;13.60;99.90;;;;;;5108338;27;19911;-79
2022/01/01 06:46:12;;;;;;;;;;;13.60;99.90;;;;;;5135050;27;19942;-78
2022/01/01 06:48:37;;;;;;;;;;;13.60;99.90;;;;;;5114600;27;19922;-77
2022/01/01 06:51:03;;;;;;;;;;;13.50;99.90;;;;;;5099183;27;19912;-78
2022/01/01 06:53:28;;;;;;;;;;;13.40;99.90;;;;;;5098276;27;19916;-80
2022/01/01 06:55:54;;;;;;;;;;;13.40;99.90;;;;;;5115689;27;19915;-80
2022/01/01 06:58:19;;;;;;;;;;;13.40;99.90;;;;;;5095998;27;19958;-81
2022/01/01 07:00:45;;;;;;;;;;;13.40;99.90;;;;;;5098564;27;19964;-81
2022/01/01 07:03:10;;;;;;;;;;;13.40;99.90;;;;;;5130220;27;19944;-82
2022/01/01 07:05:36;;;;;;;;;;;13.50;99.90;;;;;;5133597;27;19972;-81
2022/01/01 07:08:02;;;;;;;;;;;13.50;99.90;;;;;;5113769;27;19915;-81
2022/01/01 07:10:27;;;;;;;;;;;13.50;99.90;;;;;;5112876;28;20358;-81
2022/01/01 07:12:53;;;;;;;;;;;13.50;99.90;;;;;;5112290;27;19911;-81
2022/01/01 07:15:18;;;;;;;;;;;13.50;99.90;;;;;;5093302;28;19923;-81
2022/01/01 07:17:44;;;;;;;;;;;13.50;99.90;;;;;;5096417;28;19920;-81
2022/01/01 07:20:10;;;;;;;;;;;13.50;99.90;;;;;;5131007;28;20260;-81
2022/01/01 07:22:43;;;;;;;;;;;13.40;99.90;;;;;;5114412;28;19968;-81
2022/01/01 07:25:09;;;;;;;;;;;13.40;99.90;;;;;;5109869;28;19922;-80
2022/01/01 07:27:34;;;;;;;;;;;13.30;99.90;;;;;;5114653;28;20147;-80
2022/01/01 07:30:00;;;;;;;;;;;13.20;99.90;;;;;;5097299;28;20373;-81
2022/01/01 07:32:25;;;;;;;;;;;13.20;99.90;;;;;;5108190;28;19915;-80
2022/01/01 07:34:51;;;;;;;;;;;13.20;99.90;;;;;;5113478;28;19922;-80
2022/01/01 07:37:17;;;;;;;;;;;13.20;99.90;;;;;;5095606;28;19920;-82
2022/01/01 07:39:42;;;;;;;;;;;13.20;99.90;;;;;;5104993;28;19915;-80
2022/01/01 07:42:08;;;;;;;;;;;13.20;99.90;;;;;;5089065;28;19920;-80
2022/01/01 07:44:34;;;;;;;;;;;13.30;99.90;;;;;;5113472;28;19917;-80
2022/01/01 07:47:00;;;;;;;;;;;13.30;99.90;;;;;;5114872;28;19915;-80
2022/01/01 07:49:26;;;;;;;;;;;13.30;99.90;;;;;;5111024;28;20426;-81
2022/01/01 07:51:52;;;;;;;;;;;13.30;99.90;;;;;;5095035;28;19958;-81
2022/01/01 07:54:17;;;;;;;;;;;13.30;99.90;;;;;;5111772;28;19918;-83
2022/01/01 07:56:43;;;;;;;;;;;13.40;99.90;;;;;;5113590;28;20424;-81
2022/01/01 07:59:08;;;;;;;;;;;13.40;99.90;;;;;;5113233;28;20034;-81
2022/01/01 08:01:35;;;;;;;;;;;13.30;99.90;;;;;;5095479;28;20354;-81
2022/01/01 08:04:02;;;;;;;;;;;13.30;99.90;;;;;;5113740;27;20367;-81
2022/01/01 08:06:29;;;;;;;;;;;13.30;99.90;;;;;;5099231;27;20359;-81
2022/01/01 08:08:54;;;;;;;;;;;13.30;99.90;;;;;;5137073;27;19912;-81
2022/01/01 08:11:20;;;;;;;;;;;13.40;99.90;;;;;;5136718;27;19918;-82
2022/01/01 08:13:45;;;;;;;;;;;13.50;99.90;;;;;;5115150;27;20256;-81
2022/01/01 08:16:11;;;;;;;;;;;13.60;99.90;;;;;;5116153;27;20423;-81
2022/01/01 08:18:36;;;;;;;;;;;13.60;99.90;;;;;;5099939;27;19930;-81
2022/01/01 08:21:02;;;;;;;;;;;13.60;99.90;;;;;;5100658;27;19922;-81
2022/01/01 08:23:27;;;;;;;;;;;13.60;99.90;;;;;;5096553;27;20291;-82
2022/01/01 08:25:56;;;;;;;;;;;13.60;99.90;;;;;;5089141;27;20014;-81
2022/01/01 08:28:21;;;;;;;;;;;13.50;99.90;;;;;;5107181;27;19912;-81
2022/01/01 08:30:47;;;;;;;;;;;13.40;99.90;;;;;;5124315;27;19916;-81
2022/01/01 08:33:12;;;;;;;;;;;13.40;99.90;;;;;;5106263;27;19972;-80
2022/01/01 08:35:38;;;;;;;;;;;13.40;99.90;;;;;;5087862;28;19920;-81
2022/01/01 08:38:07;;;;;;;;;;;13.40;99.90;;;;;;5116645;27;19916;-81
2022/01/01 08:40:33;;;;;;;;;;;13.30;99.90;;;;;;5115380;27;20390;-81
2022/01/01 08:42:58;;;;;;;;;;;13.40;99.90;;;;;;5117110;27;19915;-81
2022/01/01 08:45:24;;;;;;;;;;;13.40;99.90;;;;;;5132650;27;19918;-82
2022/01/01 08:47:50;;;;;;;;;;;13.40;99.90;;;;;;5115843;27;19916;-80
2022/01/01 08:50:15;;;;;;;;;;;13.50;99.90;;;;;;5137494;27;20347;-81
2022/01/01 08:52:41;;;;;;;;;;;13.60;99.90;;;;;;5118497;27;19947;-80
2022/01/01 08:55:07;;;;;;;;;;;13.70;99.90;;;;;;5117276;27;20290;-80
2022/01/01 08:57:33;;;;;;;;;;;13.80;99.90;;;;;;5119534;27;20054;-83
2022/01/01 08:59:59;;;;;;;;;;;13.80;99.90;;;;;;5137250;27;20419;-80
2022/01/01 09:02:25;;;;;;;;;;;13.90;99.90;;;;;;5138166;27;19937;-82
2022/01/01 09:04:51;;;;;;;;;;;13.80;99.90;;;;;;5111887;27;19922;-80
2022/01/01 09:07:17;;;;;;;;;;;13.90;99.90;;;;;;5116388;27;19918;-81
2022/01/01 09:09:43;;;;;;;;;;;14.00;99.90;;;;;;5115773;27;20328;-80
2022/01/01 09:12:09;;;;;;;;;;;13.90;99.90;;;;;;5116418;27;19915;-81
2022/01/01 09:14:34;;;;;;;;;;;14.00;99.90;;;;;;5133728;27;20293;-81
2022/01/01 09:17:00;;;;;;;;;;;14.00;99.90;;;;;;5095434;27;20282;-80
2022/01/01 09:19:26;;;;;;;;;;;14.10;99.90;;;;;;5115429;27;19927;-80
2022/01/01 09:21:52;;;;;;;;;;;14.20;99.90;;;;;;5099478;27;19976;-81
2022/01/01 09:24:17;;;;;;;;;;;14.30;99.90;;;;;;5112159;27;20371;-80
2022/01/01 09:26:43;;;;;;;;;;;14.30;99.80;;;;;;5114527;27;20364;-79
2022/01/01 09:29:10;;;;;;;;;;;14.50;99.70;;;;;;5116847;27;19911;-79
2022/01/01 09:31:41;;;;;;;;;;;14.60;99.10;;;;;;5114457;27;20005;-79
2022/01/01 09:34:07;;;;;;;;;;;14.70;99.50;;;;;;5114768;27;19919;-80
2022/01/01 09:36:33;;;;;;;;;;;14.70;99.20;;;;;;5110756;27;19923;-81
2022/01/01 09:38:58;;;;;;;;;;;14.70;99.00;;;;;;5089130;28;19927;-81
2022/01/01 09:41:24;;;;;;;;;;;14.60;98.80;;;;;;5114937;27;19919;-80
2022/01/01 09:43:52;;;;;;;;;;;14.60;99.00;;;;;;5089420;27;19919;-81
2022/01/01 09:46:18;;;;;;;;;;;14.60;99.20;;;;;;5113782;27;19918;-81
2022/01/01 09:48:43;;;;;;;;;;;14.50;98.80;;;;;;5125613;27;19911;-81
2022/01/01 09:51:09;;;;;;;;;;;14.50;99.10;;;;;;5107967;27;19919;-81
2022/01/01 09:53:35;;;;;;;;;;;14.60;99.20;;;;;;5112224;27;19919;-80
2022/01/01 09:56:01;;;;;;;;;;;14.60;99.00;;;;;;5095077;28;20265;-80
2022/01/01 09:58:28;;;;;;;;;;;14.60;98.90;;;;;;5095501;27;19925;-80
2022/01/01 10:00:54;;;;;;;;;;;14.60;99.00;;;;;;5115902;27;20160;-80
2022/01/01 10:03:45;;;;;;;;;;;14.60;99.20;;;;;;5099219;27;20386;-79
2022/01/01 10:06:15;;;;;;;;;;;14.60;99.00;;;;;;5126881;27;20624;-80
2022/01/01 10:08:41;;;;;;;;;;;14.60;98.60;;;;;;5131644;27;19919;-80
2022/01/01 10:11:08;;;;;;;;;;;14.60;98.60;;;;;;5134672;27;19947;-80
2022/01/01 10:13:36;;;;;;;;;;;14.70;98.70;;;;;;5132277;27;19998;-82
2022/01/01 10:16:02;;;;;;;;;;;14.60;98.90;;;;;;5114776;27;19998;-81
2022/01/01 10:18:38;;;;;;;;;;;14.60;98.70;;;;;;5114682;27;19930;-81
2022/01/01 10:21:08;;;;;;;;;;;14.60;98.70;;;;;;5114935;27;20256;-81
2022/01/01 10:23:35;;;;;;;;;;;14.60;98.60;;;;;;5131947;27;19918;-80
2022/01/01 10:28:55;;;;;;;;;;;14.60;98.70;;;;;;5133459;27;19976;-81
2022/01/01 10:31:20;;;;;;;;;;;14.70;98.50;;;;;;5114956;27;19915;-80
2022/01/01 10:33:46;;;;;;;;;;;14.70;98.40;;;;;;5097151;27;19960;-82
2022/01/01 10:36:13;;;;;;;;;;;14.70;98.30;;;;;;5114588;27;20389;-80
2022/01/01 10:38:38;;;;;;;;;;;14.70;98.30;;;;;;5115114;27;19916;-81
2022/01/01 10:41:08;;;;;;;;;;;14.80;98.20;;;;;;5092613;27;19931;-81
2022/01/01 10:43:41;;;;;;;;;;;14.90;98.10;;;;;;5117951;27;19912;-80
2022/01/01 10:46:15;;;;;;;;;;;15.00;97.70;;;;;;5137100;27;20346;-81
2022/01/01 10:51:07;;;;;;;;;;;15.10;97.40;;;;;;5134825;27;19915;-81
2022/01/01 10:53:34;;;;;;;;;;;15.30;97.50;;;;;;5116635;27;19942;-81
2022/01/01 10:56:04;;;;;;;;;;;15.40;97.50;;;;;;5116017;28;19907;-80
2022/01/01 10:58:32;;;;;;;;;;;15.50;97.50;;;;;;5114086;27;19951;-80
2022/01/01 11:01:04;;;;;;;;;;;15.70;97.00;;;;;;5114655;27;20252;-79
2022/01/01 11:03:35;;;;;;;;;;;15.80;96.30;;;;;;5113248;27;20374;-80
2022/01/01 11:06:08;;;;;;;;;;;15.80;95.90;;;;;;5110772;27;19967;-80
2022/01/01 11:08:34;;;;;;;;;;;16.00;95.60;;;;;;5115289;28;19908;-79
2022/01/01 11:11:01;;;;;;;;;;;16.20;95.30;;;;;;5113710;27;19972;-80
2022/01/01 11:13:26;;;;;;;;;;;16.30;94.90;;;;;;5096176;27;19915;-80
2022/01/01 11:15:52;;;;;;;;;;;16.40;95.20;;;;;;5113784;28;19971;-79
2022/01/01 11:18:18;;;;;;;;;;;16.70;95.30;;;;;;5097749;28;19924;-78
2022/01/01 11:20:44;;;;;;;;;;;17.00;93.60;;;;;;5113598;28;19911;-80
2022/01/01 11:23:10;;;;;;;;;;;17.10;92.90;;;;;;5096993;28;19929;-80
2022/01/01 11:25:36;;;;;;;;;;;17.10;93.10;;;;;;5114342;28;19915;-80
2022/01/01 11:28:03;;;;;;;;;;;17.00;92.70;;;;;;5114499;28;20362;-80
2022/01/01 11:30:30;;;;;;;;;;;16.90;93.70;;;;;;5113732;28;20358;-80
2022/01/01 11:33:06;;;;;;;;;;;17.00;93.40;;;;;;5113218;28;19916;-80
2022/01/01 11:35:38;;;;;;;;;;;17.20;94.50;;;;;;5113359;28;19912;-80
2022/01/01 11:38:10;;;;;;;;;;;17.10;92.40;;;;;;5114014;27;19951;-80
2022/01/01 11:40:45;;;;;;;;;;;16.90;92.60;;;;;;5117440;27;19915;-80
2022/01/01 11:43:30;;;;;;;;;;;16.70;93.40;;;;;;5136035;27;20010;-80
2022/01/01 11:45:59;;;;;;;;;;;16.60;94.00;;;;;;5116387;27;19960;-80
2022/01/01 11:48:33;;;;;;;;;;;16.60;94.60;;;;;;5118812;27;20360;-80
2022/01/01 11:51:18;;;;;;;;;;;16.60;94.90;;;;;;5117162;27;19920;-80
2022/01/01 11:54:02;;;;;;;;;;;16.80;94.60;;;;;;5098269;28;20014;-80
2022/01/01 11:56:51;;;;;;;;;;;16.80;93.90;;;;;;5117100;27;19919;-80
2022/01/01 11:59:21;;;;;;;;;;;16.80;94.10;;;;;;5110606;28;20295;-79
2022/01/01 12:01:47;;;;;;;;;;;16.80;94.10;;;;;;5106224;27;19923;-82
2022/01/01 12:04:23;;;;;;;;;;;16.80;94.70;;;;;;5121358;27;19907;-79
2022/01/01 12:06:52;;;;;;;;;;;16.80;94.40;;;;;;5119386;27;19923;-81
2022/01/01 12:09:18;;;;;;;;;;;16.70;94.40;;;;;;5120251;27;20174;-80
2022/01/01 12:11:50;;;;;;;;;;;16.60;94.10;;;;;;5120608;27;19933;-80
2022/01/01 12:14:30;;;;;;;;;;;16.70;94.40;;;;;;5121869;27;20402;-79
2022/01/01 12:16:56;;;;;;;;;;;16.50;94.10;;;;;;5107207;28;20439;-80
2022/01/01 12:19:23;;;;;;;;;;;16.40;94.40;;;;;;5117843;28;19920;-80
2022/01/01 12:21:59;;;;;;;;;;;16.40;94.80;;;;;;5099162;28;19965;-82
2022/01/01 12:24:26;;;;;;;;;;;16.50;95.30;;;;;;5100163;28;19907;-80
2022/01/01 12:26:53;;;;;;;;;;;16.50;95.50;;;;;;5118120;27;19911;-81
2022/01/01 12:29:24;;;;;;;;;;;16.50;95.60;;;;;;5102749;27;19916;-81
2022/01/01 12:31:58;;;;;;;;;;;16.60;95.70;;;;;;5101109;28;19911;-80
2022/01/01 12:34:24;;;;;;;;;;;16.60;95.70;;;;;;5082504;27;19912;-80
2022/01/01 12:36:51;;;;;;;;;;;16.50;95.00;;;;;;5109585;27;20343;-80
2022/01/01 12:39:17;;;;;;;;;;;16.40;95.50;;;;;;5119662;27;19911;-79
2022/01/01 12:41:44;;;;;;;;;;;16.40;95.30;;;;;;5101395;27;20393;-80
2022/01/01 12:44:13;;;;;;;;;;;16.30;95.60;;;;;;5117767;27;19912;-80
2022/01/01 12:46:43;;;;;;;;;;;16.30;95.70;;;;;;5119674;27;20026;-79
2022/01/01 12:49:09;;;;;;;;;;;16.40;95.90;;;;;;5118247;27;19922;-81
2022/01/01 12:51:37;;;;;;;;;;;16.40;96.00;;;;;;5117830;27;19915;-81
2022/01/01 12:54:04;;;;;;;;;;;16.40;96.10;;;;;;5137035;27;19912;-80
2022/01/01 12:56:30;;;;;;;;;;;16.30;96.00;;;;;;5120274;27;19923;-80
2022/01/01 12:58:57;;;;;;;;;;;16.30;96.20;;;;;;5097151;28;19920;-81
2022/01/01 13:01:24;;;;;;;;;;;16.30;96.10;;;;;;5113891;27;19916;-82
2022/01/01 13:04:01;;;;;;;;;;;16.20;96.00;;;;;;5137368;27;19914;-80
2022/01/01 13:06:28;;;;;;;;;;;16.10;95.70;;;;;;5118619;27;20268;-80
2022/01/01 13:08:54;;;;;;;;;;;16.00;95.60;;;;;;5132846;27;20780;-81
2022/01/01 13:11:20;;;;;;;;;;;15.90;95.80;;;;;;5132813;27;19912;-80
2022/01/01 13:13:46;;;;;;;;;;;15.90;96.20;;;;;;5118677;27;19980;-79
2022/01/01 13:16:12;;;;;;;;;;;15.90;96.30;;;;;;5102892;27;19915;-80
2022/01/01 13:18:37;;;;;;;;;;;15.90;96.20;;;;;;5113633;27;19926;-81
2022/01/01 13:21:03;;;;;;;;;;;15.90;96.30;;;;;;5092809;27;20359;-81
2022/01/01 13:23:29;;;;;;;;;;;15.90;96.40;;;;;;5115443;27;19915;-81
2022/01/01 13:25:55;;;;;;;;;;;15.80;96.20;;;;;;5096834;27;19931;-80
2022/01/01 13:28:25;;;;;;;;;;;15.80;96.40;;;;;;5119098;27;20317;-81
2022/01/01 13:30:51;;;;;;;;;;;15.80;96.40;;;;;;5129438;27;19922;-81
2022/01/01 13:33:17;;;;;;;;;;;15.70;96.50;;;;;;5135604;27;19935;-80
2022/01/01 13:35:50;;;;;;;;;;;15.70;96.40;;;;;;5120405;27;19953;-80
2022/01/01 13:38:16;;;;;;;;;;;15.60;96.60;;;;;;5125090;27;19923;-79
2022/01/01 13:40:54;;;;;;;;;;;15.70;96.60;;;;;;5139511;27;20010;-79
2022/01/01 13:43:20;;;;;;;;;;;15.70;96.70;;;;;;5125774;27;19915;-80
2022/01/01 13:45:45;;;;;;;;;;;15.60;96.80;;;;;;5129228;27;19926;-79
2022/01/01 13:48:12;;;;;;;;;;;15.60;96.80;;;;;;5107880;27;19924;-79
2022/01/01 13:50:42;;;;;;;;;;;15.60;96.70;;;;;;5128532;27;19926;-80
2022/01/01 13:53:08;;;;;;;;;;;15.50;96.90;;;;;;5144552;27;20268;-80
2022/01/01 13:55:34;;;;;;;;;;;15.50;97.10;;;;;;5114546;27;19912;-82
2022/01/01 13:58:04;;;;;;;;;;;15.50;97.10;;;;;;5135622;27;19922;-80
2022/01/01 14:00:30;;;;;;;;;;;15.40;97.10;;;;;;5136307;27;19968;-80
2022/01/01 14:02:56;;;;;;;;;;;15.40;97.20;;;;;;5116764;27;19929;-80
2022/01/01 14:05:25;;;;;;;;;;;15.40;97.30;;;;;;5118294;27;19907;-79
2022/01/01 14:08:13;;;;;;;;;;;15.40;97.40;;;;;;5119773;27;19912;-80
2022/01/01 14:10:39;;;;;;;;;;;15.40;97.40;;;;;;5137170;27;19915;-80
2022/01/01 14:13:04;;;;;;;;;;;15.30;97.40;;;;;;5118447;27;19916;-78
2022/01/01 14:15:30;;;;;;;;;;;15.30;97.50;;;;;;5097945;27;19919;-80
2022/01/01 14:17:58;;;;;;;;;;;15.30;97.50;;;;;;5117799;27;19919;-80
2022/01/01 14:20:25;;;;;;;;;;;15.20;97.60;;;;;;5115071;27;20059;-79
2022/01/01 14:22:51;;;;;;;;;;;15.20;97.50;;;;;;5134625;27;19912;-81
2022/01/01 14:25:16;;;;;;;;;;;15.20;97.50;;;;;;5099278;27;20382;-79